createdAt,value
2019-06-07T00:00:42.171Z,9.13
2019-06-07T00:01:42.092Z,9.09
2019-06-07T00:02:42.031Z,9.10
2019-06-07T00:03:41.937Z,9.09
2019-06-07T00:04:41.859Z,9.09
2019-06-07T00:05:41.788Z,9.10
2019-06-07T00:06:41.703Z,9.09
2019-06-07T00:07:41.630Z,9.17
2019-06-07T00:08:41.548Z,9.14
2019-06-07T00:09:41.470Z,9.02
2019-06-07T00:10:41.406Z,9.02
2019-06-07T00:11:41.316Z,9.00
2019-06-07T00:12:41.240Z,9.02
2019-06-07T00:13:41.157Z,9.00
2019-06-07T00:14:41.079Z,8.95
2019-06-07T00:15:41.001Z,9.02
2019-06-07T00:16:40.951Z,9.00
2019-06-07T00:17:40.846Z,9.00
2019-06-07T00:18:40.766Z,9.05
2019-06-07T00:19:40.706Z,9.05
2019-06-07T00:20:40.710Z,9.00
2019-06-07T00:22:13.578Z,9.12
2019-06-07T00:22:40.455Z,9.13
2019-06-07T00:23:40.379Z,9.16
2019-06-07T00:24:40.299Z,9.12
2019-06-07T00:25:40.219Z,9.13
2019-06-07T00:26:57.327Z,9.09
2019-06-07T00:27:40.063Z,8.95
2019-06-07T00:28:39.984Z,8.98
2019-06-07T00:29:39.906Z,9.09
2019-06-07T00:30:50.762Z,9.10
2019-06-07T00:31:39.751Z,9.12
2019-06-07T00:32:39.703Z,9.09
2019-06-07T00:33:39.596Z,9.09
2019-06-07T00:34:39.558Z,9.14
2019-06-07T00:35:39.440Z,9.13
2019-06-07T00:36:39.364Z,9.17
2019-06-07T00:37:39.282Z,9.17
2019-06-07T00:38:39.212Z,9.19
2019-06-07T00:39:39.126Z,9.24
2019-06-07T00:40:39.049Z,9.19
2019-06-07T00:41:38.990Z,9.16
2019-06-07T00:42:38.893Z,9.17
2019-06-07T00:43:38.814Z,9.12
2019-06-07T00:44:38.736Z,9.12
2019-06-07T00:45:38.659Z,9.05
2019-06-07T00:46:38.585Z,8.98
2019-06-07T00:47:38.504Z,9.03
2019-06-07T00:48:38.424Z,9.00
2019-06-07T00:49:41.330Z,9.05
2019-06-07T00:50:38.270Z,9.03
2019-06-07T00:51:50.090Z,9.09
2019-06-07T00:53:38.072Z,9.05
2019-06-07T00:54:37.957Z,9.10
2019-06-07T00:55:37.884Z,9.05
2019-06-07T00:56:37.800Z,9.02
2019-06-07T00:57:37.721Z,9.05
2019-06-07T00:58:37.643Z,9.10
2019-06-07T00:59:37.581Z,8.98
2019-06-07T01:00:37.501Z,9.06
2019-06-07T01:01:37.409Z,9.00
2019-06-07T01:02:37.349Z,8.90
2019-06-07T01:03:37.361Z,8.95
2019-06-07T01:04:37.174Z,8.98
2019-06-07T01:05:37.096Z,8.94
2019-06-07T01:06:37.018Z,8.94
2019-06-07T01:07:36.946Z,9.00
2019-06-07T01:08:36.861Z,9.02
2019-06-07T01:09:36.784Z,9.06
2019-06-07T01:10:53.122Z,8.93
2019-06-07T01:11:36.630Z,8.82
2019-06-07T01:12:36.549Z,8.95
2019-06-07T01:13:36.471Z,8.90
2019-06-07T01:14:36.892Z,8.94
2019-06-07T01:15:36.315Z,8.94
2019-06-07T01:16:55.706Z,8.94
2019-06-07T01:17:50.111Z,8.94
2019-06-07T01:18:41.275Z,9.05
2019-06-07T01:19:36.006Z,9.02
2019-06-07T01:20:35.926Z,9.02
2019-06-07T01:21:35.847Z,9.02
2019-06-07T01:22:35.784Z,9.02
2019-06-07T01:24:04.792Z,9.03
2019-06-07T01:24:35.611Z,9.05
2019-06-07T01:25:35.536Z,9.19
2019-06-07T01:26:35.458Z,9.17
2019-06-07T01:27:35.378Z,9.28
2019-06-07T01:28:35.304Z,9.25
2019-06-07T01:29:35.224Z,9.25
2019-06-07T01:30:35.145Z,9.28
2019-06-07T01:31:35.066Z,9.34
2019-06-07T01:32:34.987Z,9.35
2019-06-07T01:33:50.243Z,9.34
2019-06-07T01:34:34.832Z,9.35
2019-06-07T01:35:34.757Z,9.31
2019-06-07T01:36:34.675Z,9.34
2019-06-07T01:37:34.599Z,9.42
2019-06-07T01:38:34.575Z,9.50
2019-06-07T01:39:34.542Z,9.49
2019-06-07T01:40:34.403Z,9.43
2019-06-07T01:41:34.289Z,9.46
2019-06-07T01:42:34.209Z,9.42
2019-06-07T01:43:34.133Z,9.50
2019-06-07T01:44:34.053Z,9.60
2019-06-07T01:45:33.976Z,9.71
2019-06-07T01:46:33.896Z,9.71
2019-06-07T01:47:33.819Z,9.68
2019-06-07T01:48:49.097Z,9.71
2019-06-07T01:49:33.661Z,9.75
2019-06-07T01:50:33.594Z,9.78
2019-06-07T01:51:33.675Z,9.78
2019-06-07T01:52:33.430Z,9.74
2019-06-07T01:53:33.355Z,9.74
2019-06-07T01:54:57.309Z,9.70
2019-06-07T01:55:33.195Z,9.67
2019-06-07T01:56:33.148Z,9.71
2019-06-07T01:57:45.465Z,9.70
2019-06-07T01:58:32.961Z,9.71
2019-06-07T01:59:32.886Z,9.83
2019-06-07T02:00:32.936Z,9.80
2019-06-07T02:01:35.289Z,9.79
2019-06-07T02:02:32.652Z,9.82
2019-06-07T02:03:33.499Z,9.82
2019-06-07T02:04:33.499Z,9.85
2019-06-07T02:05:32.587Z,9.83
2019-06-07T02:06:32.414Z,9.82
2019-06-07T02:07:33.278Z,9.78
2019-06-07T02:08:34.367Z,9.82
2019-06-07T02:09:32.383Z,9.78
2019-06-07T02:10:33.603Z,9.80
2019-06-07T02:11:32.136Z,9.72
2019-06-07T02:12:42.429Z,9.79
2019-06-07T02:13:31.796Z,9.71
2019-06-07T02:14:33.380Z,9.55
2019-06-07T02:15:36.441Z,9.53
2019-06-07T02:16:32.609Z,9.47
2019-06-07T02:17:33.294Z,9.49
2019-06-07T02:18:34.600Z,9.40
2019-06-07T02:19:33.274Z,9.43
2019-06-07T02:20:34.254Z,9.32
2019-06-07T02:21:34.321Z,9.29
2019-06-07T02:22:32.589Z,9.27
2019-06-07T02:23:33.528Z,9.22
2019-06-07T02:24:34.635Z,9.20
2019-06-07T02:25:46.521Z,9.16
2019-06-07T02:26:32.529Z,9.13
2019-06-07T02:27:32.763Z,9.16
2019-06-07T02:28:44.579Z,9.14
2019-06-07T02:29:32.985Z,9.12
2019-06-07T02:30:47.613Z,9.22
2019-06-07T02:31:36.980Z,9.22
2019-06-07T02:32:34.705Z,9.19
2019-06-07T02:33:37.295Z,9.28
2019-06-07T02:34:35.969Z,9.22
2019-06-07T02:35:34.870Z,9.20
2019-06-07T02:36:36.554Z,9.12
2019-06-07T02:37:35.833Z,9.17
2019-06-07T02:38:35.925Z,9.16
2019-06-07T02:39:34.407Z,9.10
2019-06-07T02:40:36.466Z,9.09
2019-06-07T02:41:35.963Z,9.09
2019-06-07T02:42:39.141Z,9.05
2019-06-07T02:43:34.425Z,9.10
2019-06-07T02:44:34.916Z,9.25
2019-06-07T02:45:36.174Z,9.13
2019-06-07T02:46:40.098Z,9.13
2019-06-07T02:47:32.496Z,9.09
2019-06-07T02:48:35.438Z,8.97
2019-06-07T02:49:36.108Z,9.05
2019-06-07T02:50:34.086Z,9.03
2019-06-07T02:51:35.834Z,9.09
2019-06-07T02:52:33.568Z,9.00
2019-06-07T02:53:30.814Z,9.00
2019-06-07T02:54:32.428Z,9.00
2019-06-07T02:55:31.221Z,9.05
2019-06-07T02:56:42.152Z,9.03
2019-06-07T02:57:34.328Z,9.03
2019-06-07T02:58:32.476Z,8.98
2019-06-07T02:59:56.717Z,9.06
2019-06-07T03:00:47.511Z,9.02
2019-06-07T03:01:31.344Z,9.05
2019-06-07T03:02:32.879Z,9.03
2019-06-07T03:03:28.940Z,9.02
2019-06-07T03:04:29.498Z,9.06
2019-06-07T03:05:29.850Z,9.02
2019-06-07T03:06:33.264Z,9.05
2019-06-07T03:07:29.767Z,9.12
2019-06-07T03:08:28.249Z,9.09
2019-06-07T03:09:30.838Z,9.02
2019-06-07T03:10:28.534Z,9.14
2019-06-07T03:11:28.222Z,9.06
2019-06-07T03:12:30.835Z,8.98
2019-06-07T03:13:28.915Z,8.94
2019-06-07T03:14:28.519Z,8.87
2019-06-07T03:15:35.473Z,9.03
2019-06-07T03:16:26.886Z,8.94
2019-06-07T03:17:27.668Z,8.97
2019-06-07T03:18:28.577Z,8.95
2019-06-07T03:19:26.651Z,8.85
2019-06-07T03:20:27.607Z,8.90
2019-06-07T03:21:28.118Z,8.87
2019-06-07T03:22:26.742Z,8.93
2019-06-07T03:23:26.881Z,8.77
2019-06-07T03:24:30.094Z,8.85
2019-06-07T03:25:26.182Z,8.91
2019-06-07T03:26:27.610Z,8.87
2019-06-07T03:27:41.315Z,8.94
2019-06-07T03:28:27.292Z,9.00
2019-06-07T03:29:28.449Z,9.00
2019-06-07T03:30:59.999Z,9.02
2019-06-07T03:31:28.443Z,9.09
2019-06-07T03:32:25.637Z,9.19
2019-06-07T03:33:26.874Z,9.09
2019-06-07T03:34:25.483Z,9.12
2019-06-07T03:35:27.618Z,9.19
2019-06-07T03:36:25.977Z,9.37
2019-06-07T03:37:27.376Z,9.50
2019-06-07T03:38:25.171Z,9.60
2019-06-07T03:39:25.377Z,9.63
2019-06-07T03:40:25.011Z,9.72
2019-06-07T03:41:24.937Z,9.72
2019-06-07T03:42:24.857Z,9.71
2019-06-07T03:43:24.777Z,9.70
2019-06-07T03:44:24.698Z,9.80
2019-06-07T03:45:24.620Z,9.83
2019-06-07T03:46:24.543Z,9.88
2019-06-07T03:47:24.481Z,9.88
2019-06-07T03:48:24.387Z,9.70
2019-06-07T03:49:24.309Z,9.78
2019-06-07T03:50:24.235Z,9.72
2019-06-07T03:51:26.925Z,9.67
2019-06-07T03:52:24.075Z,9.72
2019-06-07T03:53:23.997Z,9.71
2019-06-07T03:54:23.920Z,9.75
2019-06-07T03:55:23.842Z,9.68
2019-06-07T03:56:23.763Z,9.58
2019-06-07T03:57:23.686Z,9.61
2019-06-07T03:58:34.694Z,9.60
2019-06-07T03:59:23.531Z,9.49
2019-06-07T04:00:23.452Z,9.61
2019-06-07T04:01:23.377Z,9.53
2019-06-07T04:02:23.299Z,9.58
2019-06-07T04:03:33.290Z,9.50
2019-06-07T04:04:23.144Z,9.45
2019-06-07T04:05:23.063Z,9.45
2019-06-07T04:06:22.986Z,9.52
2019-06-07T04:07:22.908Z,9.43
2019-06-07T04:08:22.829Z,9.38
2019-06-07T04:09:22.786Z,9.40
2019-06-07T04:10:45.845Z,9.46
2019-06-07T04:11:22.598Z,9.40
2019-06-07T04:12:22.520Z,9.46
2019-06-07T04:13:23.442Z,9.47
2019-06-07T04:14:23.408Z,9.42
2019-06-07T04:15:22.286Z,9.49
2019-06-07T04:16:22.210Z,9.49
2019-06-07T04:17:22.130Z,9.56
2019-06-07T04:18:22.055Z,9.60
2019-06-07T04:19:21.977Z,9.60
2019-06-07T04:20:21.898Z,9.60
2019-06-07T04:21:21.820Z,9.72
2019-06-07T04:22:21.743Z,9.65
2019-06-07T04:23:28.321Z,9.67
2019-06-07T04:24:21.589Z,9.53
2019-06-07T04:25:21.511Z,9.60
2019-06-07T04:26:21.432Z,9.58
2019-06-07T04:27:21.355Z,9.53
2019-06-07T04:28:21.276Z,9.53
2019-06-07T04:29:56.789Z,9.58
2019-06-07T04:30:21.123Z,9.61
2019-06-07T04:31:22.277Z,9.63
2019-06-07T04:32:20.970Z,9.55
2019-06-07T04:33:20.893Z,9.55
2019-06-07T04:34:20.812Z,9.55
2019-06-07T04:35:20.734Z,9.67
2019-06-07T04:36:39.528Z,9.67
2019-06-07T04:37:20.580Z,9.56
2019-06-07T04:38:20.501Z,9.46
2019-06-07T04:39:20.424Z,9.53
2019-06-07T04:40:20.357Z,9.40
2019-06-07T04:41:20.269Z,9.42
2019-06-07T04:42:20.191Z,9.37
2019-06-07T04:43:20.116Z,9.25
2019-06-07T04:44:20.036Z,9.25
2019-06-07T04:45:33.924Z,9.27
2019-06-07T04:46:19.880Z,9.32
2019-06-07T04:47:19.802Z,9.40
2019-06-07T04:48:19.726Z,9.32
2019-06-07T04:49:19.648Z,9.28
2019-06-07T04:50:19.594Z,9.32
2019-06-07T04:51:19.497Z,9.37
2019-06-07T04:52:19.416Z,9.34
2019-06-07T04:53:19.336Z,9.34
2019-06-07T04:54:19.258Z,9.40
2019-06-07T04:55:19.183Z,9.38
2019-06-07T04:56:19.102Z,9.35
2019-06-07T04:57:19.026Z,9.37
2019-06-07T04:58:18.948Z,9.38
2019-06-07T05:00:00.902Z,9.47
2019-06-07T05:00:48.799Z,9.40
2019-06-07T05:01:27.145Z,9.58
2019-06-07T05:02:18.636Z,9.60
2019-06-07T05:03:18.634Z,9.56
2019-06-07T05:04:18.481Z,9.58
2019-06-07T05:05:18.403Z,9.63
2019-06-07T05:06:18.328Z,9.61
2019-06-07T05:07:18.249Z,9.63
2019-06-07T05:08:28.151Z,9.75
2019-06-07T05:09:18.093Z,9.70
2019-06-07T05:10:18.017Z,9.63
2019-06-07T05:11:17.938Z,9.79
2019-06-07T05:12:17.861Z,9.86
2019-06-07T05:13:17.783Z,9.93
2019-06-07T05:14:17.706Z,9.93
2019-06-07T05:15:17.630Z,10.04
2019-06-07T05:16:17.551Z,10.01
2019-06-07T05:17:17.508Z,10.21
2019-06-07T05:18:17.399Z,10.23
2019-06-07T05:19:17.319Z,10.25
2019-06-07T05:20:17.241Z,10.23
2019-06-07T05:21:17.165Z,10.28
2019-06-07T05:22:17.087Z,10.34
2019-06-07T05:23:59.379Z,10.29
2019-06-07T05:24:16.932Z,10.41
2019-06-07T05:25:17.205Z,10.55
2019-06-07T05:26:16.789Z,10.59
2019-06-07T05:27:16.702Z,10.65
2019-06-07T05:28:16.624Z,10.71
2019-06-07T05:29:16.549Z,10.71
2019-06-07T05:30:51.032Z,10.80
2019-06-07T05:31:16.394Z,10.88
2019-06-07T05:32:16.318Z,10.92
2019-06-07T05:33:16.241Z,11.02
2019-06-07T05:34:16.163Z,11.05
2019-06-07T05:35:16.101Z,11.06
2019-06-07T05:36:16.010Z,11.16
2019-06-07T05:37:15.933Z,11.17
2019-06-07T05:38:15.857Z,11.26
2019-06-07T05:39:15.782Z,11.38
2019-06-07T05:40:15.703Z,11.41
2019-06-07T05:41:15.628Z,11.50
2019-06-07T05:42:15.551Z,11.54
2019-06-07T05:43:15.476Z,11.69
2019-06-07T05:44:15.411Z,11.69
2019-06-07T05:45:15.320Z,11.71
2019-06-07T05:46:15.245Z,11.74
2019-06-07T05:47:15.176Z,11.76
2019-06-07T05:48:15.137Z,11.78
2019-06-07T05:49:15.016Z,11.95
2019-06-07T05:50:38.659Z,11.94
2019-06-07T05:51:14.864Z,12.15
2019-06-07T05:52:14.787Z,12.23
2019-06-07T05:53:14.713Z,12.18
2019-06-07T05:54:14.690Z,12.23
2019-06-07T05:55:14.559Z,12.36
2019-06-07T05:56:15.393Z,12.36
2019-06-07T05:57:14.407Z,12.48
2019-06-07T05:58:14.332Z,12.51
2019-06-07T05:59:14.255Z,12.56
2019-06-07T06:00:14.180Z,12.63
2019-06-07T06:01:42.387Z,12.74
2019-06-07T06:02:22.368Z,12.74
2019-06-07T06:03:13.952Z,12.89
2019-06-07T06:04:13.886Z,12.88
2019-06-07T06:05:32.530Z,12.97
2019-06-07T06:06:13.749Z,12.97
2019-06-07T06:07:13.650Z,13.04
2019-06-07T06:08:13.576Z,13.04
2019-06-07T06:09:14.326Z,13.03
2019-06-07T06:10:13.424Z,13.15
2019-06-07T06:11:13.348Z,13.14
2019-06-07T06:12:13.273Z,13.21
2019-06-07T06:13:13.198Z,13.32
2019-06-07T06:14:13.123Z,13.29
2019-06-07T06:15:13.077Z,13.43
2019-06-07T06:16:12.972Z,13.56
2019-06-07T06:17:12.895Z,13.56
2019-06-07T06:18:12.819Z,13.62
2019-06-07T06:19:12.744Z,13.71
2019-06-07T06:20:12.668Z,13.63
2019-06-07T06:21:19.293Z,13.61
2019-06-07T06:22:12.568Z,13.48
2019-06-07T06:23:12.443Z,13.44
2019-06-07T06:24:12.369Z,13.45
2019-06-07T06:26:12.217Z,13.61
2019-06-07T06:27:28.461Z,13.66
2019-06-07T06:28:13.187Z,13.56
2019-06-07T06:29:11.991Z,13.65
2019-06-07T06:30:11.927Z,13.65
2019-06-07T06:31:11.880Z,13.56
2019-06-07T06:32:41.317Z,13.63
2019-06-07T06:33:30.787Z,13.47
2019-06-07T06:34:11.617Z,13.50
2019-06-07T06:35:11.544Z,13.56
2019-06-07T06:36:11.465Z,13.44
2019-06-07T06:37:11.540Z,13.45
2019-06-07T06:38:11.316Z,13.28
2019-06-07T06:39:11.240Z,13.24
2019-06-07T06:40:11.166Z,13.21
2019-06-07T06:41:15.729Z,13.18
2019-06-07T06:42:11.014Z,13.27
2019-06-07T06:43:10.939Z,13.24
2019-06-07T06:44:10.868Z,13.36
2019-06-07T06:45:10.789Z,13.29
2019-06-07T06:46:10.714Z,13.18
2019-06-07T06:47:10.638Z,13.18
2019-06-07T06:48:10.562Z,13.25
2019-06-07T06:49:10.488Z,13.27
2019-06-07T06:50:10.412Z,13.25
2019-06-07T06:51:10.338Z,13.33
2019-06-07T06:52:10.260Z,13.48
2019-06-07T06:53:10.189Z,13.53
2019-06-07T06:54:10.117Z,13.65
2019-06-07T06:55:10.069Z,13.62
2019-06-07T06:56:09.960Z,13.71
2019-06-07T06:57:19.631Z,13.83
2019-06-07T06:58:09.810Z,13.99
2019-06-07T06:59:41.263Z,14.13
2019-06-07T07:00:09.657Z,14.11
2019-06-07T07:01:09.633Z,14.21
2019-06-07T07:02:09.510Z,14.32
2019-06-07T07:03:46.963Z,14.36
2019-06-07T07:04:12.944Z,14.39
2019-06-07T07:05:09.283Z,14.50
2019-06-07T07:06:25.435Z,14.47
2019-06-07T07:07:09.134Z,14.54
2019-06-07T07:08:09.085Z,14.57
2019-06-07T07:09:08.986Z,14.46
2019-06-07T07:10:08.911Z,14.44
2019-06-07T07:11:08.838Z,14.53
2019-06-07T07:12:12.532Z,14.57
2019-06-07T07:13:08.687Z,14.59
2019-06-07T07:14:08.614Z,14.49
2019-06-07T07:15:08.541Z,14.47
2019-06-07T07:16:08.469Z,14.57
2019-06-07T07:17:08.391Z,14.61
2019-06-07T07:18:09.064Z,14.72
2019-06-07T07:19:08.244Z,14.85
2019-06-07T07:20:08.261Z,14.88
2019-06-07T07:21:08.094Z,14.87
2019-06-07T07:22:08.021Z,15.01
2019-06-07T07:23:07.947Z,15.01
2019-06-07T07:24:21.226Z,15.12
2019-06-07T07:25:07.798Z,14.90
2019-06-07T07:26:07.725Z,14.88
2019-06-07T07:27:07.653Z,14.87
2019-06-07T07:28:07.578Z,14.87
2019-06-07T07:29:07.505Z,14.80
2019-06-07T07:30:35.255Z,14.75
2019-06-07T07:31:07.492Z,14.59
2019-06-07T07:32:07.284Z,14.53
2019-06-07T07:33:07.283Z,14.60
2019-06-07T07:34:31.863Z,14.60
2019-06-07T07:35:07.063Z,14.59
2019-06-07T07:36:28.072Z,14.64
2019-06-07T07:37:06.915Z,14.74
2019-06-07T07:38:06.848Z,14.69
2019-06-07T07:39:06.881Z,14.75
2019-06-07T07:40:54.916Z,14.83
2019-06-07T07:41:14.471Z,14.97
2019-06-07T07:42:20.025Z,15.10
2019-06-07T07:43:06.575Z,15.10
2019-06-07T07:44:07.719Z,15.30
2019-06-07T07:45:06.327Z,15.39
2019-06-07T07:46:28.433Z,15.41
2019-06-07T07:47:06.182Z,15.39
2019-06-07T07:48:15.385Z,15.42
2019-06-07T07:49:06.031Z,15.43
2019-06-07T07:50:05.996Z,15.35
2019-06-07T07:51:05.888Z,15.45
2019-06-07T07:52:05.812Z,15.55
2019-06-07T07:53:05.740Z,15.61
2019-06-07T07:54:10.743Z,15.59
2019-06-07T07:55:05.727Z,15.52
2019-06-07T07:56:05.906Z,15.67
2019-06-07T07:57:05.442Z,15.81
2019-06-07T07:58:05.372Z,15.82
2019-06-07T07:59:05.467Z,15.86
2019-06-07T08:00:48.076Z,16.04
2019-06-07T08:01:10.588Z,15.97
2019-06-07T08:02:05.077Z,16.12
2019-06-07T08:03:05.005Z,16.25
2019-06-07T08:04:04.927Z,16.26
2019-06-07T08:06:04.780Z,16.12
2019-06-07T08:07:04.709Z,16.33
2019-06-07T08:08:07.436Z,16.45
2019-06-07T08:09:04.560Z,16.59
2019-06-07T08:10:04.696Z,16.44
2019-06-07T08:11:04.418Z,16.60
2019-06-07T08:12:04.343Z,16.59
2019-06-07T08:13:23.700Z,16.71
2019-06-07T08:14:04.195Z,16.71
2019-06-07T08:15:04.277Z,16.81
2019-06-07T08:16:11.302Z,16.92
2019-06-07T08:17:03.976Z,16.96
2019-06-07T08:18:04.588Z,17.00
2019-06-07T08:19:04.592Z,17.02
2019-06-07T08:20:03.769Z,16.77
2019-06-07T08:21:21.880Z,16.88
2019-06-07T08:22:03.612Z,17.14
2019-06-07T08:23:03.539Z,17.07
2019-06-07T08:24:04.877Z,17.20
2019-06-07T08:25:04.501Z,17.18
2019-06-07T08:26:03.323Z,17.23
2019-06-07T08:27:24.601Z,17.23
2019-06-07T08:28:03.175Z,17.20
2019-06-07T08:29:03.393Z,17.21
2019-06-07T08:30:25.955Z,17.30
2019-06-07T08:31:06.732Z,17.18
2019-06-07T08:32:02.883Z,17.23
2019-06-07T08:33:24.594Z,17.29
2019-06-07T08:34:02.740Z,17.39
2019-06-07T08:35:06.424Z,17.58
2019-06-07T08:36:15.093Z,17.66
2019-06-07T08:37:02.519Z,17.55
2019-06-07T08:39:07.193Z,17.69
2019-06-07T08:40:02.300Z,17.76
2019-06-07T08:41:11.068Z,17.91
2019-06-07T08:42:15.241Z,17.81
2019-06-07T08:43:18.379Z,17.95
2019-06-07T08:44:21.751Z,18.06
2019-06-07T08:45:05.440Z,18.10
2019-06-07T08:46:07.030Z,18.06
2019-06-07T08:47:19.412Z,18.04
2019-06-07T08:48:09.459Z,18.19
2019-06-07T08:49:04.581Z,18.19
2019-06-07T08:50:07.448Z,18.19
2019-06-07T08:51:08.058Z,18.09
2019-06-07T08:52:09.946Z,18.16
2019-06-07T08:53:11.505Z,18.16
2019-06-07T08:54:21.062Z,18.18
2019-06-07T08:55:04.739Z,18.04
2019-06-07T08:56:09.704Z,18.34
2019-06-07T08:57:19.964Z,18.47
2019-06-07T08:58:04.332Z,18.46
2019-06-07T08:59:10.718Z,18.53
2019-06-07T09:00:17.287Z,18.53
2019-06-07T09:01:07.694Z,18.57
2019-06-07T09:02:05.766Z,18.52
2019-06-07T09:03:05.035Z,18.42
2019-06-07T09:04:07.611Z,18.55
2019-06-07T09:05:06.856Z,18.65
2019-06-07T09:06:06.565Z,18.86
2019-06-07T09:07:08.384Z,18.90
2019-06-07T09:08:23.899Z,18.86
2019-06-07T09:09:02.006Z,18.87
2019-06-07T09:10:08.277Z,18.92
2019-06-07T09:11:05.287Z,18.90
2019-06-07T09:12:07.399Z,18.94
2019-06-07T09:13:04.974Z,18.98
2019-06-07T09:14:02.918Z,19.06
2019-06-07T09:16:04.903Z,19.02
2019-06-07T09:17:04.443Z,19.08
2019-06-07T09:19:03.862Z,18.92
2019-06-07T09:20:07.241Z,18.92
2019-06-07T09:21:01.151Z,18.90
2019-06-07T09:22:03.368Z,18.95
2019-06-07T09:23:07.195Z,19.02
2019-06-07T09:24:03.854Z,19.27
2019-06-07T09:25:05.925Z,19.14
2019-06-07T09:26:07.935Z,19.13
2019-06-07T09:27:02.419Z,19.15
2019-06-07T09:28:06.144Z,19.36
2019-06-07T09:29:01.290Z,19.31
2019-06-07T09:30:03.179Z,19.32
2019-06-07T09:31:02.837Z,19.42
2019-06-07T09:32:03.844Z,19.46
2019-06-07T09:32:58.922Z,19.36
2019-06-07T09:34:04.721Z,19.40
2019-06-07T09:35:02.492Z,19.46
2019-06-07T09:36:00.747Z,19.46
2019-06-07T09:37:10.838Z,19.54
2019-06-07T09:38:18.178Z,19.69
2019-06-07T09:38:59.558Z,19.64
2019-06-07T09:40:05.674Z,19.76
2019-06-07T09:40:59.737Z,19.76
2019-06-07T09:41:58.719Z,19.72
2019-06-07T09:43:48.159Z,19.87
2019-06-07T09:44:14.331Z,19.72
2019-06-07T09:45:01.170Z,19.86
2019-06-07T09:45:58.717Z,19.91
2019-06-07T09:47:20.607Z,19.97
2019-06-07T09:47:59.364Z,20.03
2019-06-07T09:49:20.957Z,20.03
2019-06-07T09:50:02.350Z,20.09
2019-06-07T09:51:02.007Z,20.09
2019-06-07T09:51:57.941Z,20.06
2019-06-07T09:53:04.901Z,20.27
2019-06-07T09:53:58.524Z,20.20
2019-06-07T09:55:15.483Z,20.35
2019-06-07T09:55:59.414Z,20.42
2019-06-07T09:57:00.358Z,20.42
2019-06-07T09:58:07.612Z,20.42
2019-06-07T09:58:59.555Z,20.40
2019-06-07T09:59:57.917Z,20.54
2019-06-07T10:00:57.553Z,20.51
2019-06-07T10:01:59.081Z,20.40
2019-06-07T10:03:02.291Z,20.50
2019-06-07T10:03:58.771Z,20.47
2019-06-07T10:04:59.886Z,20.57
2019-06-07T10:05:57.980Z,20.64
2019-06-07T10:06:56.066Z,20.71
2019-06-07T10:08:07.549Z,20.80
2019-06-07T10:10:12.371Z,20.86
2019-06-07T10:10:55.780Z,20.86
2019-06-07T10:11:55.703Z,20.79
2019-06-07T10:12:55.784Z,20.84
2019-06-07T10:13:55.563Z,20.89
2019-06-07T10:14:55.492Z,20.84
2019-06-07T10:15:55.421Z,20.83
2019-06-07T10:16:55.351Z,20.84
2019-06-07T10:17:55.281Z,20.90
2019-06-07T10:18:55.208Z,20.86
2019-06-07T10:19:55.138Z,20.91
2019-06-07T10:20:55.068Z,20.96
2019-06-07T10:21:54.996Z,20.99
2019-06-07T10:22:54.927Z,21.08
2019-06-07T10:23:54.853Z,21.09
2019-06-07T10:24:54.784Z,21.17
2019-06-07T10:25:54.715Z,21.17
2019-06-07T10:26:54.643Z,21.17
2019-06-07T10:27:54.597Z,21.20
2019-06-07T10:28:54.506Z,21.21
2019-06-07T10:29:54.434Z,21.21
2019-06-07T10:30:54.360Z,21.24
2019-06-07T10:31:54.291Z,21.16
2019-06-07T10:32:54.220Z,21.21
2019-06-07T10:33:54.151Z,21.39
2019-06-07T10:34:54.081Z,21.46
2019-06-07T10:35:54.009Z,21.48
2019-06-07T10:36:53.943Z,21.49
2019-06-07T10:37:53.868Z,21.45
2019-06-07T10:38:53.797Z,21.54
2019-06-07T10:39:53.740Z,21.53
2019-06-07T10:40:53.654Z,21.44
2019-06-07T10:41:54.203Z,21.45
2019-06-07T10:42:53.515Z,21.54
2019-06-07T10:43:53.446Z,21.48
2019-06-07T10:44:53.373Z,21.59
2019-06-07T10:45:53.307Z,21.70
2019-06-07T10:46:53.234Z,21.84
2019-06-07T10:47:53.162Z,21.95
2019-06-07T10:48:53.092Z,22.00
2019-06-07T10:49:53.022Z,22.02
2019-06-07T10:50:52.953Z,21.95
2019-06-07T10:51:52.882Z,21.91
2019-06-07T10:52:52.810Z,21.92
2019-06-07T10:53:52.742Z,21.97
2019-06-07T10:54:52.670Z,22.07
2019-06-07T10:55:52.603Z,22.13
2019-06-07T10:56:52.530Z,22.22
2019-06-07T10:57:52.462Z,22.31
2019-06-07T10:58:52.390Z,22.28
2019-06-07T10:59:52.320Z,22.35
2019-06-07T11:00:52.257Z,22.44
2019-06-07T11:01:52.184Z,22.52
2019-06-07T11:02:55.050Z,22.41
2019-06-07T11:03:52.041Z,22.38
2019-06-07T11:04:51.979Z,22.46
2019-06-07T11:05:51.901Z,22.35
2019-06-07T11:06:51.832Z,22.30
2019-06-07T11:07:51.810Z,22.28
2019-06-07T11:08:51.695Z,22.38
2019-06-07T11:10:05.633Z,22.46
2019-06-07T11:10:51.552Z,22.50
2019-06-07T11:11:51.483Z,22.68
2019-06-07T11:12:51.414Z,22.59
2019-06-07T11:13:52.551Z,22.62
2019-06-07T11:14:51.274Z,22.47
2019-06-07T11:15:51.261Z,22.68
2019-06-07T11:16:51.186Z,22.71
2019-06-07T11:17:51.070Z,22.92
2019-06-07T11:18:50.998Z,23.00
2019-06-07T11:19:50.930Z,22.83
2019-06-07T11:20:50.860Z,22.97
2019-06-07T11:21:50.792Z,23.07
2019-06-07T11:22:50.726Z,23.20
2019-06-07T11:23:50.656Z,23.46
2019-06-07T11:24:50.590Z,23.46
2019-06-07T11:25:50.577Z,23.56
2019-06-07T11:26:50.456Z,23.58
2019-06-07T11:27:50.391Z,23.64
2019-06-07T11:29:32.813Z,23.82
2019-06-07T11:30:32.749Z,24.02
2019-06-07T11:33:00.211Z,24.27
2019-06-07T11:35:02.652Z,24.63
2019-06-07T11:36:06.569Z,25.02
2019-06-07T11:37:07.202Z,25.57
2019-06-07T11:38:02.457Z,26.08
2019-06-07T11:39:06.402Z,26.07
2019-06-07T11:40:02.327Z,26.12
2019-06-07T11:41:02.259Z,26.02
2019-06-07T11:42:02.248Z,25.93
2019-06-07T11:43:02.194Z,26.49
2019-06-07T11:44:02.086Z,26.09
2019-06-07T11:45:02.006Z,26.32
2019-06-07T11:47:06.188Z,26.94
2019-06-07T11:48:01.813Z,26.95
2019-06-07T11:49:01.754Z,26.98
2019-06-07T11:50:01.701Z,27.24
2019-06-07T11:51:01.627Z,27.12
2019-06-07T11:52:01.565Z,26.97
2019-06-07T11:53:01.504Z,26.84
2019-06-07T11:54:01.441Z,27.26
2019-06-07T11:55:01.382Z,26.99
2019-06-07T11:56:01.319Z,26.87
2019-06-07T11:57:01.257Z,27.09
2019-06-07T11:58:01.207Z,27.44
2019-06-07T11:59:01.136Z,27.73
2019-06-07T12:00:01.074Z,27.64
2019-06-07T12:01:01.016Z,27.50
2019-06-07T12:02:00.955Z,27.49
2019-06-07T12:03:00.896Z,27.57
2019-06-07T12:04:00.833Z,27.38
2019-06-07T12:05:00.773Z,27.92
2019-06-07T12:06:00.715Z,28.02
2019-06-07T12:07:00.656Z,27.88
2019-06-07T12:08:00.595Z,27.84
2019-06-07T12:09:00.538Z,27.64
2019-06-07T12:10:00.476Z,27.12
2019-06-07T12:11:00.434Z,27.36
2019-06-07T12:12:00.358Z,28.06
2019-06-07T12:13:00.301Z,28.49
2019-06-07T12:14:00.285Z,28.43
2019-06-07T12:15:00.181Z,28.04
2019-06-07T12:16:00.122Z,27.64
2019-06-07T12:17:00.064Z,28.17
2019-06-07T12:18:00.006Z,28.41
2019-06-07T12:18:59.947Z,28.44
2019-06-07T12:19:59.892Z,27.80
2019-06-07T12:20:59.830Z,27.50
2019-06-07T12:21:59.773Z,27.60
2019-06-07T12:22:59.713Z,28.25
2019-06-07T12:23:59.657Z,28.69
2019-06-07T12:24:59.597Z,29.18
2019-06-07T12:25:59.541Z,29.40
2019-06-07T12:26:59.482Z,29.90
2019-06-07T12:27:59.424Z,29.25
2019-06-07T12:28:59.365Z,29.04
2019-06-07T12:29:59.314Z,29.07
2019-06-07T12:32:24.250Z,29.13
2019-06-07T12:33:24.198Z,29.47
2019-06-07T12:34:24.136Z,29.62
2019-06-07T12:35:24.075Z,29.25
2019-06-07T12:36:24.020Z,29.38
2019-06-07T12:37:42.044Z,29.07
2019-06-07T12:38:23.905Z,29.29
2019-06-07T12:39:23.847Z,29.23
2019-06-07T12:40:30.103Z,29.16
2019-06-07T12:41:23.744Z,28.87
2019-06-07T12:42:23.681Z,29.13
2019-06-07T12:43:23.633Z,29.36
2019-06-07T12:44:23.562Z,30.00
2019-06-07T12:45:42.789Z,29.65
2019-06-07T12:46:28.420Z,30.18
2019-06-07T12:47:23.391Z,30.36
2019-06-07T12:48:25.897Z,30.37
2019-06-07T12:49:23.637Z,30.46
2019-06-07T12:50:23.926Z,30.59
2019-06-07T12:51:23.487Z,30.06
2019-06-07T12:52:24.539Z,29.44
2019-06-07T12:53:27.539Z,29.21
2019-06-07T12:54:23.864Z,29.36
2019-06-07T12:55:24.721Z,29.78
2019-06-07T12:56:24.224Z,30.29
2019-06-07T12:57:24.171Z,30.92
2019-06-07T12:58:32.668Z,31.34
2019-06-07T12:59:22.719Z,31.67
2019-06-07T13:00:22.660Z,31.34
2019-06-07T13:01:23.057Z,30.85
2019-06-07T13:02:24.011Z,30.34
2019-06-07T13:03:22.639Z,30.12
2019-06-07T13:04:22.638Z,30.70
2019-06-07T13:05:23.717Z,30.99
2019-06-07T13:06:23.605Z,30.89
2019-06-07T13:07:22.879Z,30.96
2019-06-07T13:08:22.211Z,30.99
2019-06-07T13:09:22.219Z,31.31
2019-06-07T13:10:22.257Z,31.08
2019-06-07T13:11:27.467Z,30.17
2019-06-07T13:12:21.989Z,29.00
2019-06-07T13:13:22.803Z,28.78
2019-06-07T13:14:22.124Z,29.28